Millington Regional Jetport Airport
KNQA : now visible

Airfield :











YOU CAN JOIN US ON...

 
LOGIN :

Register | Disclaimer

   EN    FR    IT 

 









Legend :    VFR   Marginal VFR   IFR   Intensive IFR   Very Intensive IFR
Visi :
Ceiling :
>= 8 km
>= 3000ft
5 to 8 km
1000 to 3000 ft
1500m to 5 km
500 to 1000 ft
800 to 1500m
200 to 500 ft
< 800m
< 200 ft
Symbols :   Thunderstorms  Fog  Heavy snow  Heavy precipitations  Wind > 20 kt






- Airport Elevation : 320 ft


KNQA - Millington Regional Jetport

CURRENT METAR :
  • 150715Z AUTO 01003KT 10SM BKN095 OVC120 05/04 A3000 RMK A01

EXPIRED METARs :
  • 150655Z AUTO 01003KT 10SM OVC110 04/04 A3000 RMK A01
  • 150635Z AUTO 00000KT 10SM BKN100 06/04 A2999 RMK A01
  • 150615Z AUTO 00000KT 10SM FEW028 FEW070 BKN100 05/04 A2999 RMK A01
  • 150555Z AUTO 00000KT 10SM FEW028 SCT095 BKN110 05/04 A2999 RMK A01
  • 150535Z AUTO 00000KT 10SM FEW075 SCT100 SCT120 05/04 A2999 RMK A01
  • 150515Z AUTO 00000KT 10SM BKN100 BKN120 05/04 A2998 RMK A01
  • 150455Z AUTO 00000KT 10SM SCT110 05/04 A2998 RMK A01
  • 150435Z AUTO 00000KT 10SM FEW120 05/04 A2997 RMK A01

TAF N/A



MET'MAP, your aeronautical weather chart ! - Copyright ORBIFLY December 2007 - Disclaimer

ORBIFLY MET'MAP TEAM :

Programming & Development : Alexandra Zaïnal
Concept & original design : Baudouin d'Aumeries
Assistance for programming : Marc-Olivier Méhu
Technical & hardware support : Manuel Goepfert

Contact : metmap@orbifly.com




SOURCES & CREDITS :

   NOAA       Earth
Advisory